Hallsville, Texas
Current Conditions -  °F | °C
As of 5:53 AM on Thursday 18 Dec 2014 (Local Time) from KGGG Reporting Station
Overcast Overcast  
Wind Chill: 42°   Ceiling: 300
Heat Index: 44°   Visibility: 9mi
Dew Point: 41°   Wind: 5mph
Humidity: 89%   Direction: 50°NE
Pressure: 30.14"   Gusts: NA
Location:  32.5°N, 94.57°W
Report Text: KGGG 181153Z AUTO 05004KT 9SM OVC003 07/05 A3014 RMK AO2 RAE1057 SLP208 P0000 60002 70008 T00670050 10072 20067 55004
Loading
Personal Weather Stations






























Interactive Weather Map New forecast layout! Learn more

10-Day Weather Forecast

Advertisements
Track Severe Weather on mobile